sensor_id;sensor_type;location;lat;lon;timestamp;P1;durP1;ratioP1;P2;durP2;ratioP2
9388;SDS011;4734;52.778;6.798;2023-05-10T00:01:43;6.97;;;6.43;;
9388;SDS011;4734;52.778;6.798;2023-05-10T00:04:29;6.25;;;5.75;;
9388;SDS011;4734;52.778;6.798;2023-05-10T00:07:14;6.05;;;5.65;;
9388;SDS011;4734;52.778;6.798;2023-05-10T00:10:01;6.18;;;5.70;;
9388;SDS011;4734;52.778;6.798;2023-05-10T00:12:46;6.20;;;5.78;;
9388;SDS011;4734;52.778;6.798;2023-05-10T00:15:32;6.10;;;5.70;;
9388;SDS011;4734;52.778;6.798;2023-05-10T00:18:20;6.13;;;5.72;;
9388;SDS011;4734;52.778;6.798;2023-05-10T00:21:05;5.70;;;5.13;;
9388;SDS011;4734;52.778;6.798;2023-05-10T00:23:51;6.25;;;5.85;;
9388;SDS011;4734;52.778;6.798;2023-05-10T00:26:36;5.97;;;5.47;;
9388;SDS011;4734;52.778;6.798;2023-05-10T00:29:21;6.07;;;5.53;;
9388;SDS011;4734;52.778;6.798;2023-05-10T00:32:07;5.43;;;5.03;;
9388;SDS011;4734;52.778;6.798;2023-05-10T00:34:54;5.20;;;4.90;;
9388;SDS011;4734;52.778;6.798;2023-05-10T00:37:40;5.75;;;5.25;;
9388;SDS011;4734;52.778;6.798;2023-05-10T00:40:25;5.53;;;5.13;;
9388;SDS011;4734;52.778;6.798;2023-05-10T00:43:12;6.35;;;5.70;;
9388;SDS011;4734;52.778;6.798;2023-05-10T00:45:57;6.15;;;5.65;;
9388;SDS011;4734;52.778;6.798;2023-05-10T00:48:43;6.32;;;5.72;;
9388;SDS011;4734;52.778;6.798;2023-05-10T00:51:30;7.10;;;6.50;;
9388;SDS011;4734;52.778;6.798;2023-05-10T00:54:16;6.82;;;6.28;;
9388;SDS011;4734;52.778;6.798;2023-05-10T00:57:02;7.20;;;6.70;;
9388;SDS011;4734;52.778;6.798;2023-05-10T00:59:47;6.93;;;6.43;;
9388;SDS011;4734;52.778;6.798;2023-05-10T01:02:33;6.85;;;6.35;;
9388;SDS011;4734;52.778;6.798;2023-05-10T01:05:18;7.03;;;6.53;;
9388;SDS011;4734;52.778;6.798;2023-05-10T01:08:05;7.18;;;6.68;;
9388;SDS011;4734;52.778;6.798;2023-05-10T01:10:52;7.15;;;6.55;;
9388;SDS011;4734;52.778;6.798;2023-05-10T01:13:39;7.45;;;6.93;;
9388;SDS011;4734;52.778;6.798;2023-05-10T01:16:27;7.78;;;7.18;;
9388;SDS011;4734;52.778;6.798;2023-05-10T01:19:16;7.10;;;6.60;;
9388;SDS011;4734;52.778;6.798;2023-05-10T01:22:05;7.22;;;6.63;;
9388;SDS011;4734;52.778;6.798;2023-05-10T01:25:13;7.72;;;7.13;;
9388;SDS011;4734;52.778;6.798;2023-05-10T01:28:35;7.95;;;7.20;;
9388;SDS011;4734;52.778;6.798;2023-05-10T01:31:57;7.30;;;6.70;;
9388;SDS011;4734;52.778;6.798;2023-05-10T01:35:02;6.53;;;6.03;;
9388;SDS011;4734;52.778;6.798;2023-05-10T01:37:52;6.85;;;6.35;;
9388;SDS011;4734;52.778;6.798;2023-05-10T01:40:48;6.72;;;6.22;;
9388;SDS011;4734;52.778;6.798;2023-05-10T01:43:42;6.63;;;6.07;;
9388;SDS011;4734;52.778;6.798;2023-05-10T01:46:35;7.05;;;6.40;;
9388;SDS011;4734;52.778;6.798;2023-05-10T01:49:23;7.05;;;6.50;;
9388;SDS011;4734;52.778;6.798;2023-05-10T01:52:12;6.68;;;6.18;;
9388;SDS011;4734;52.778;6.798;2023-05-10T01:55:01;6.70;;;6.10;;
9388;SDS011;4734;52.778;6.798;2023-05-10T01:57:50;6.40;;;5.90;;
9388;SDS011;4734;52.778;6.798;2023-05-10T02:00:44;5.95;;;5.55;;
9388;SDS011;4734;52.778;6.798;2023-05-10T02:03:31;6.50;;;6.00;;
9388;SDS011;4734;52.778;6.798;2023-05-10T02:06:21;6.68;;;6.18;;
9388;SDS011;4734;52.778;6.798;2023-05-10T02:09:09;5.68;;;5.18;;
9388;SDS011;4734;52.778;6.798;2023-05-10T02:11:55;6.40;;;5.80;;
9388;SDS011;4734;52.778;6.798;2023-05-10T02:14:44;5.95;;;5.45;;
9388;SDS011;4734;52.778;6.798;2023-05-10T02:17:31;5.97;;;5.47;;
9388;SDS011;4734;52.778;6.798;2023-05-10T02:20:17;5.70;;;5.30;;
9388;SDS011;4734;52.778;6.798;2023-05-10T02:23:06;5.82;;;5.43;;
9388;SDS011;4734;52.778;6.798;2023-05-10T02:25:53;5.75;;;5.32;;
9388;SDS011;4734;52.778;6.798;2023-05-10T02:28:41;5.75;;;5.30;;
9388;SDS011;4734;52.778;6.798;2023-05-10T02:31:27;6.55;;;5.72;;
9388;SDS011;4734;52.778;6.798;2023-05-10T02:34:13;5.20;;;4.80;;
9388;SDS011;4734;52.778;6.798;2023-05-10T02:36:59;5.50;;;5.00;;
9388;SDS011;4734;52.778;6.798;2023-05-10T02:39:47;5.65;;;5.15;;
9388;SDS011;4734;52.778;6.798;2023-05-10T02:42:35;5.82;;;5.22;;
9388;SDS011;4734;52.778;6.798;2023-05-10T02:45:23;5.57;;;5.07;;
9388;SDS011;4734;52.778;6.798;2023-05-10T02:48:11;5.68;;;5.28;;
9388;SDS011;4734;52.778;6.798;2023-05-10T02:50:59;5.50;;;5.10;;
9388;SDS011;4734;52.778;6.798;2023-05-10T02:53:49;5.68;;;5.28;;
9388;SDS011;4734;52.778;6.798;2023-05-10T02:56:40;5.53;;;5.13;;
9388;SDS011;4734;52.778;6.798;2023-05-10T02:59:29;5.68;;;5.28;;
9388;SDS011;4734;52.778;6.798;2023-05-10T03:02:14;7.03;;;5.38;;
9388;SDS011;4734;52.778;6.798;2023-05-10T03:05:00;5.80;;;5.30;;
9388;SDS011;4734;52.778;6.798;2023-05-10T03:07:46;5.47;;;5.07;;
9388;SDS011;4734;52.778;6.798;2023-05-10T03:10:33;6.30;;;5.80;;
9388;SDS011;4734;52.778;6.798;2023-05-10T03:13:28;6.00;;;5.60;;
9388;SDS011;4734;52.778;6.798;2023-05-10T03:16:20;6.10;;;5.60;;
9388;SDS011;4734;52.778;6.798;2023-05-10T03:19:12;6.25;;;5.75;;
9388;SDS011;4734;52.778;6.798;2023-05-10T03:22:03;5.93;;;5.43;;
9388;SDS011;4734;52.778;6.798;2023-05-10T03:24:55;5.95;;;5.55;;
9388;SDS011;4734;52.778;6.798;2023-05-10T03:27:42;5.30;;;4.90;;
9388;SDS011;4734;52.778;6.798;2023-05-10T03:30:30;5.70;;;5.20;;
9388;SDS011;4734;52.778;6.798;2023-05-10T03:33:18;5.90;;;5.40;;
9388;SDS011;4734;52.778;6.798;2023-05-10T03:36:04;5.45;;;4.95;;
9388;SDS011;4734;52.778;6.798;2023-05-10T03:38:50;5.47;;;5.05;;
9388;SDS011;4734;52.778;6.798;2023-05-10T03:41:35;5.28;;;4.88;;
9388;SDS011;4734;52.778;6.798;2023-05-10T03:44:21;5.30;;;4.90;;
9388;SDS011;4734;52.778;6.798;2023-05-10T03:47:08;5.57;;;5.07;;
9388;SDS011;4734;52.778;6.798;2023-05-10T03:49:53;5.38;;;4.88;;
9388;SDS011;4734;52.778;6.798;2023-05-10T03:52:39;5.30;;;4.90;;
9388;SDS011;4734;52.778;6.798;2023-05-10T03:55:24;5.78;;;5.20;;
9388;SDS011;4734;52.778;6.798;2023-05-10T03:58:10;5.55;;;5.13;;
9388;SDS011;4734;52.778;6.798;2023-05-10T04:00:56;5.70;;;5.30;;
9388;SDS011;4734;52.778;6.798;2023-05-10T04:03:42;5.53;;;5.03;;
9388;SDS011;4734;52.778;6.798;2023-05-10T04:06:28;5.45;;;5.05;;
9388;SDS011;4734;52.778;6.798;2023-05-10T04:09:14;5.35;;;4.95;;
9388;SDS011;4734;52.778;6.798;2023-05-10T04:12:00;6.65;;;5.10;;
9388;SDS011;4734;52.778;6.798;2023-05-10T04:14:46;5.40;;;5.00;;
9388;SDS011;4734;52.778;6.798;2023-05-10T04:17:31;5.40;;;5.00;;
9388;SDS011;4734;52.778;6.798;2023-05-10T04:20:18;6.13;;;5.63;;
9388;SDS011;4734;52.778;6.798;2023-05-10T04:23:04;5.90;;;5.50;;
9388;SDS011;4734;52.778;6.798;2023-05-10T04:25:50;6.30;;;5.75;;
9388;SDS011;4734;52.778;6.798;2023-05-10T04:28:35;5.50;;;5.10;;
9388;SDS011;4734;52.778;6.798;2023-05-10T04:31:21;6.50;;;5.90;;
9388;SDS011;4734;52.778;6.798;2023-05-10T04:34:06;5.63;;;5.10;;
9388;SDS011;4734;52.778;6.798;2023-05-10T04:36:54;6.30;;;5.80;;
9388;SDS011;4734;52.778;6.798;2023-05-10T04:39:39;9.35;;;6.50;;
9388;SDS011;4734;52.778;6.798;2023-05-10T04:42:25;6.65;;;6.13;;
9388;SDS011;4734;52.778;6.798;2023-05-10T04:45:10;6.72;;;6.20;;
9388;SDS011;4734;52.778;6.798;2023-05-10T04:47:56;7.63;;;6.88;;
9388;SDS011;4734;52.778;6.798;2023-05-10T04:50:42;7.93;;;7.28;;
9388;SDS011;4734;52.778;6.798;2023-05-10T04:53:29;7.60;;;6.88;;
9388;SDS011;4734;52.778;6.798;2023-05-10T04:56:14;7.28;;;6.63;;
9388;SDS011;4734;52.778;6.798;2023-05-10T04:59:00;8.00;;;7.25;;
9388;SDS011;4734;52.778;6.798;2023-05-10T05:01:46;8.73;;;8.02;;
9388;SDS011;4734;52.778;6.798;2023-05-10T05:04:31;7.35;;;6.75;;
9388;SDS011;4734;52.778;6.798;2023-05-10T05:07:17;7.75;;;7.15;;
9388;SDS011;4734;52.778;6.798;2023-05-10T05:10:05;7.97;;;7.07;;
9388;SDS011;4734;52.778;6.798;2023-05-10T05:12:51;7.30;;;6.70;;
9388;SDS011;4734;52.778;6.798;2023-05-10T05:15:36;9.25;;;7.63;;
9388;SDS011;4734;52.778;6.798;2023-05-10T05:18:22;9.50;;;7.38;;
9388;SDS011;4734;52.778;6.798;2023-05-10T05:21:13;8.02;;;7.40;;
9388;SDS011;4734;52.778;6.798;2023-05-10T05:23:59;7.50;;;6.90;;
9388;SDS011;4734;52.778;6.798;2023-05-10T05:26:46;8.07;;;7.30;;
9388;SDS011;4734;52.778;6.798;2023-05-10T05:29:31;7.30;;;6.60;;
9388;SDS011;4734;52.778;6.798;2023-05-10T05:32:17;6.85;;;6.25;;
9388;SDS011;4734;52.778;6.798;2023-05-10T05:35:03;7.57;;;6.72;;
9388;SDS011;4734;52.778;6.798;2023-05-10T05:37:49;7.15;;;6.47;;
9388;SDS011;4734;52.778;6.798;2023-05-10T05:40:35;7.28;;;6.43;;
9388;SDS011;4734;52.778;6.798;2023-05-10T05:43:22;7.03;;;6.32;;
9388;SDS011;4734;52.778;6.798;2023-05-10T05:46:07;7.13;;;6.43;;
9388;SDS011;4734;52.778;6.798;2023-05-10T05:48:53;6.70;;;6.03;;
9388;SDS011;4734;52.778;6.798;2023-05-10T05:51:38;6.32;;;5.72;;
9388;SDS011;4734;52.778;6.798;2023-05-10T05:54:24;8.07;;;6.38;;
9388;SDS011;4734;52.778;6.798;2023-05-10T05:57:12;7.07;;;6.18;;
9388;SDS011;4734;52.778;6.798;2023-05-10T06:00:02;6.13;;;5.50;;
9388;SDS011;4734;52.778;6.798;2023-05-10T06:02:49;6.57;;;5.97;;
9388;SDS011;4734;52.778;6.798;2023-05-10T06:05:34;6.43;;;5.72;;
9388;SDS011;4734;52.778;6.798;2023-05-10T06:08:19;6.88;;;6.28;;
9388;SDS011;4734;52.778;6.798;2023-05-10T06:11:05;6.35;;;5.80;;
9388;SDS011;4734;52.778;6.798;2023-05-10T06:13:51;7.45;;;6.07;;
9388;SDS011;4734;52.778;6.798;2023-05-10T06:16:37;7.13;;;5.72;;
9388;SDS011;4734;52.778;6.798;2023-05-10T06:19:23;5.72;;;5.22;;
9388;SDS011;4734;52.778;6.798;2023-05-10T06:22:09;6.25;;;5.65;;
9388;SDS011;4734;52.778;6.798;2023-05-10T06:24:55;6.55;;;5.82;;
9388;SDS011;4734;52.778;6.798;2023-05-10T06:27:40;5.85;;;5.35;;
9388;SDS011;4734;52.778;6.798;2023-05-10T06:30:26;5.80;;;5.20;;
9388;SDS011;4734;52.778;6.798;2023-05-10T06:33:13;7.43;;;5.38;;
9388;SDS011;4734;52.778;6.798;2023-05-10T06:35:59;6.25;;;5.65;;
9388;SDS011;4734;52.778;6.798;2023-05-10T06:38:45;5.97;;;5.40;;
9388;SDS011;4734;52.778;6.798;2023-05-10T06:41:30;6.10;;;5.50;;
9388;SDS011;4734;52.778;6.798;2023-05-10T06:44:16;7.22;;;5.50;;
9388;SDS011;4734;52.778;6.798;2023-05-10T06:47:01;5.70;;;5.20;;
9388;SDS011;4734;52.778;6.798;2023-05-10T06:49:48;7.25;;;5.63;;
9388;SDS011;4734;52.778;6.798;2023-05-10T06:52:34;5.68;;;4.97;;
9388;SDS011;4734;52.778;6.798;2023-05-10T06:55:20;5.63;;;5.00;;
9388;SDS011;4734;52.778;6.798;2023-05-10T06:58:05;5.50;;;4.95;;
9388;SDS011;4734;52.778;6.798;2023-05-10T07:00:51;6.00;;;5.40;;
9388;SDS011;4734;52.778;6.798;2023-05-10T07:03:36;6.75;;;4.80;;
9388;SDS011;4734;52.778;6.798;2023-05-10T07:06:23;5.55;;;4.80;;
9388;SDS011;4734;52.778;6.798;2023-05-10T07:09:08;5.90;;;5.38;;
9388;SDS011;4734;52.778;6.798;2023-05-10T07:11:54;6.72;;;5.15;;
9388;SDS011;4734;52.778;6.798;2023-05-10T07:14:41;5.75;;;5.05;;
9388;SDS011;4734;52.778;6.798;2023-05-10T07:17:26;5.63;;;4.75;;
9388;SDS011;4734;52.778;6.798;2023-05-10T07:20:12;4.72;;;4.32;;
9388;SDS011;4734;52.778;6.798;2023-05-10T07:22:59;5.30;;;4.82;;
9388;SDS011;4734;52.778;6.798;2023-05-10T07:25:45;5.28;;;4.78;;
9388;SDS011;4734;52.778;6.798;2023-05-10T07:28:30;5.78;;;4.20;;
9388;SDS011;4734;52.778;6.798;2023-05-10T07:31:16;5.25;;;4.63;;
9388;SDS011;4734;52.778;6.798;2023-05-10T07:34:01;5.00;;;4.50;;
9388;SDS011;4734;52.778;6.798;2023-05-10T07:36:47;5.47;;;4.47;;
9388;SDS011;4734;52.778;6.798;2023-05-10T07:39:34;6.57;;;4.35;;
9388;SDS011;4734;52.778;6.798;2023-05-10T07:42:19;5.78;;;4.53;;
9388;SDS011;4734;52.778;6.798;2023-05-10T07:45:05;5.40;;;4.90;;
9388;SDS011;4734;52.778;6.798;2023-05-10T07:47:53;5.95;;;4.55;;
9388;SDS011;4734;52.778;6.798;2023-05-10T07:50:38;17.70;;;5.30;;
9388;SDS011;4734;52.778;6.798;2023-05-10T07:53:25;6.10;;;4.68;;
9388;SDS011;4734;52.778;6.798;2023-05-10T07:56:22;6.07;;;5.13;;
9388;SDS011;4734;52.778;6.798;2023-05-10T07:59:14;6.60;;;5.28;;
9388;SDS011;4734;52.778;6.798;2023-05-10T08:02:00;5.90;;;4.80;;
9388;SDS011;4734;52.778;6.798;2023-05-10T08:04:46;5.88;;;5.13;;
9388;SDS011;4734;52.778;6.798;2023-05-10T08:07:31;5.57;;;5.03;;
9388;SDS011;4734;52.778;6.798;2023-05-10T08:10:17;7.03;;;5.32;;
9388;SDS011;4734;52.778;6.798;2023-05-10T08:13:04;6.35;;;5.22;;
9388;SDS011;4734;52.778;6.798;2023-05-10T08:15:50;5.68;;;5.18;;
9388;SDS011;4734;52.778;6.798;2023-05-10T08:18:36;6.78;;;4.47;;
9388;SDS011;4734;52.778;6.798;2023-05-10T08:21:22;4.65;;;4.25;;
9388;SDS011;4734;52.778;6.798;2023-05-10T08:24:07;5.20;;;4.38;;
9388;SDS011;4734;52.778;6.798;2023-05-10T08:26:53;5.93;;;4.93;;
9388;SDS011;4734;52.778;6.798;2023-05-10T08:29:39;5.18;;;4.68;;
9388;SDS011;4734;52.778;6.798;2023-05-10T08:32:25;5.63;;;4.85;;
9388;SDS011;4734;52.778;6.798;2023-05-10T08:35:11;6.68;;;4.68;;
9388;SDS011;4734;52.778;6.798;2023-05-10T08:37:56;4.95;;;4.45;;
9388;SDS011;4734;52.778;6.798;2023-05-10T08:40:42;4.65;;;3.70;;
9388;SDS011;4734;52.778;6.798;2023-05-10T08:43:29;4.35;;;3.95;;
9388;SDS011;4734;52.778;6.798;2023-05-10T08:46:16;4.50;;;4.10;;
9388;SDS011;4734;52.778;6.798;2023-05-10T08:49:03;4.55;;;3.75;;
9388;SDS011;4734;52.778;6.798;2023-05-10T08:51:51;5.40;;;4.88;;
9388;SDS011;4734;52.778;6.798;2023-05-10T08:54:39;5.53;;;4.60;;
9388;SDS011;4734;52.778;6.798;2023-05-10T08:57:25;4.57;;;4.18;;
9388;SDS011;4734;52.778;6.798;2023-05-10T09:00:12;4.85;;;3.83;;
9388;SDS011;4734;52.778;6.798;2023-05-10T09:03:00;5.18;;;3.95;;
9388;SDS011;4734;52.778;6.798;2023-05-10T09:05:47;4.63;;;4.00;;
9388;SDS011;4734;52.778;6.798;2023-05-10T09:08:34;4.07;;;3.15;;
9388;SDS011;4734;52.778;6.798;2023-05-10T09:11:21;3.50;;;3.03;;
9388;SDS011;4734;52.778;6.798;2023-05-10T09:14:06;3.78;;;3.42;;
9388;SDS011;4734;52.778;6.798;2023-05-10T09:16:53;4.43;;;3.28;;
9388;SDS011;4734;52.778;6.798;2023-05-10T09:19:41;4.30;;;3.83;;
9388;SDS011;4734;52.778;6.798;2023-05-10T09:22:26;3.75;;;3.40;;
9388;SDS011;4734;52.778;6.798;2023-05-10T09:25:12;4.00;;;3.60;;
9388;SDS011;4734;52.778;6.798;2023-05-10T09:27:59;3.60;;;3.30;;
9388;SDS011;4734;52.778;6.798;2023-05-10T09:30:45;4.07;;;3.67;;
9388;SDS011;4734;52.778;6.798;2023-05-10T09:33:43;3.88;;;3.45;;
9388;SDS011;4734;52.778;6.798;2023-05-10T09:36:29;3.95;;;3.65;;
9388;SDS011;4734;52.778;6.798;2023-05-10T09:39:15;4.63;;;3.58;;
9388;SDS011;4734;52.778;6.798;2023-05-10T09:42:02;5.55;;;3.80;;
9388;SDS011;4734;52.778;6.798;2023-05-10T09:44:48;4.47;;;4.07;;
9388;SDS011;4734;52.778;6.798;2023-05-10T09:47:34;3.78;;;3.47;;
9388;SDS011;4734;52.778;6.798;2023-05-10T09:50:20;4.40;;;4.00;;
9388;SDS011;4734;52.778;6.798;2023-05-10T09:53:07;4.22;;;3.85;;
9388;SDS011;4734;52.778;6.798;2023-05-10T09:55:53;4.15;;;3.85;;
9388;SDS011;4734;52.778;6.798;2023-05-10T09:58:38;4.22;;;3.88;;
9388;SDS011;4734;52.778;6.798;2023-05-10T10:01:25;5.97;;;5.10;;
9388;SDS011;4734;52.778;6.798;2023-05-10T10:04:11;5.22;;;4.20;;
9388;SDS011;4734;52.778;6.798;2023-05-10T10:07:06;5.05;;;4.65;;
9388;SDS011;4734;52.778;6.798;2023-05-10T10:09:54;5.60;;;5.10;;
9388;SDS011;4734;52.778;6.798;2023-05-10T10:12:40;6.65;;;5.47;;
9388;SDS011;4734;52.778;6.798;2023-05-10T10:15:26;5.57;;;5.07;;
9388;SDS011;4734;52.778;6.798;2023-05-10T10:18:15;5.70;;;5.20;;
9388;SDS011;4734;52.778;6.798;2023-05-10T10:21:02;6.32;;;5.53;;
9388;SDS011;4734;52.778;6.798;2023-05-10T10:23:48;5.95;;;5.40;;
9388;SDS011;4734;52.778;6.798;2023-05-10T10:26:36;5.60;;;5.00;;
9388;SDS011;4734;52.778;6.798;2023-05-10T10:29:23;6.25;;;5.63;;
9388;SDS011;4734;52.778;6.798;2023-05-10T10:32:19;5.60;;;5.07;;
9388;SDS011;4734;52.778;6.798;2023-05-10T10:35:09;5.78;;;5.28;;
9388;SDS011;4734;52.778;6.798;2023-05-10T10:37:54;5.82;;;5.22;;
9388;SDS011;4734;52.778;6.798;2023-05-10T10:40:41;6.15;;;5.40;;
9388;SDS011;4734;52.778;6.798;2023-05-10T10:43:31;5.57;;;5.07;;
9388;SDS011;4734;52.778;6.798;2023-05-10T10:46:26;5.65;;;5.18;;
9388;SDS011;4734;52.778;6.798;2023-05-10T10:49:12;6.05;;;5.45;;
9388;SDS011;4734;52.778;6.798;2023-05-10T10:52:20;5.57;;;5.15;;
9388;SDS011;4734;52.778;6.798;2023-05-10T10:55:07;6.50;;;5.85;;
9388;SDS011;4734;52.778;6.798;2023-05-10T10:57:54;7.90;;;5.90;;
9388;SDS011;4734;52.778;6.798;2023-05-10T11:00:47;7.13;;;5.60;;
9388;SDS011;4734;52.778;6.798;2023-05-10T11:03:32;6.20;;;5.60;;
9388;SDS011;4734;52.778;6.798;2023-05-10T11:06:17;6.88;;;5.85;;
9388;SDS011;4734;52.778;6.798;2023-05-10T11:09:15;5.72;;;5.22;;
9388;SDS011;4734;52.778;6.798;2023-05-10T11:12:07;7.25;;;5.40;;
9388;SDS011;4734;52.778;6.798;2023-05-10T11:14:56;6.18;;;5.55;;
9388;SDS011;4734;52.778;6.798;2023-05-10T11:17:43;6.20;;;5.60;;
9388;SDS011;4734;52.778;6.798;2023-05-10T11:20:38;5.82;;;5.22;;
9388;SDS011;4734;52.778;6.798;2023-05-10T11:23:28;6.35;;;5.75;;
9388;SDS011;4734;52.778;6.798;2023-05-10T11:26:14;5.90;;;5.38;;
9388;SDS011;4734;52.778;6.798;2023-05-10T11:29:00;6.07;;;5.47;;
9388;SDS011;4734;52.778;6.798;2023-05-10T11:31:49;6.90;;;5.55;;
9388;SDS011;4734;52.778;6.798;2023-05-10T11:34:36;5.32;;;4.60;;
9388;SDS011;4734;52.778;6.798;2023-05-10T11:37:23;5.57;;;5.07;;
9388;SDS011;4734;52.778;6.798;2023-05-10T11:40:08;5.03;;;4.53;;
9388;SDS011;4734;52.778;6.798;2023-05-10T11:42:55;5.57;;;5.07;;
9388;SDS011;4734;52.778;6.798;2023-05-10T11:45:40;7.20;;;5.78;;
9388;SDS011;4734;52.778;6.798;2023-05-10T11:48:26;5.70;;;4.75;;
9388;SDS011;4734;52.778;6.798;2023-05-10T11:51:13;6.95;;;5.18;;
9388;SDS011;4734;52.778;6.798;2023-05-10T11:53:58;6.10;;;5.60;;
9388;SDS011;4734;52.778;6.798;2023-05-10T11:56:44;5.72;;;5.22;;
9388;SDS011;4734;52.778;6.798;2023-05-10T11:59:29;6.30;;;5.70;;
9388;SDS011;4734;52.778;6.798;2023-05-10T12:02:15;6.20;;;5.60;;
9388;SDS011;4734;52.778;6.798;2023-05-10T12:05:00;5.40;;;5.00;;
9388;SDS011;4734;52.778;6.798;2023-05-10T12:07:48;6.18;;;5.68;;
9388;SDS011;4734;52.778;6.798;2023-05-10T12:10:34;5.82;;;5.32;;
9388;SDS011;4734;52.778;6.798;2023-05-10T12:13:20;6.68;;;4.82;;
9388;SDS011;4734;52.778;6.798;2023-05-10T12:16:12;4.90;;;4.50;;
9388;SDS011;4734;52.778;6.798;2023-05-10T12:18:59;6.57;;;5.45;;
9388;SDS011;4734;52.778;6.798;2023-05-10T12:21:45;7.18;;;6.13;;
9388;SDS011;4734;52.778;6.798;2023-05-10T12:24:31;5.85;;;5.25;;
9388;SDS011;4734;52.778;6.798;2023-05-10T12:27:18;5.82;;;4.95;;
9388;SDS011;4734;52.778;6.798;2023-05-10T12:30:04;4.75;;;4.32;;
9388;SDS011;4734;52.778;6.798;2023-05-10T12:32:51;6.00;;;5.10;;
9388;SDS011;4734;52.778;6.798;2023-05-10T12:35:43;8.30;;;5.75;;
9388;SDS011;4734;52.778;6.798;2023-05-10T12:38:31;6.63;;;5.95;;
9388;SDS011;4734;52.778;6.798;2023-05-10T12:41:22;6.10;;;5.43;;
9388;SDS011;4734;52.778;6.798;2023-05-10T12:44:08;6.30;;;5.65;;
9388;SDS011;4734;52.778;6.798;2023-05-10T12:46:54;6.00;;;5.07;;
9388;SDS011;4734;52.778;6.798;2023-05-10T12:49:39;5.57;;;5.05;;
9388;SDS011;4734;52.778;6.798;2023-05-10T12:52:25;5.40;;;4.90;;
9388;SDS011;4734;52.778;6.798;2023-05-10T12:55:11;4.93;;;4.53;;
9388;SDS011;4734;52.778;6.798;2023-05-10T12:57:58;6.25;;;5.63;;
9388;SDS011;4734;52.778;6.798;2023-05-10T13:00:43;6.40;;;5.80;;
9388;SDS011;4734;52.778;6.798;2023-05-10T13:03:29;6.80;;;6.03;;
9388;SDS011;4734;52.778;6.798;2023-05-10T13:06:15;6.85;;;6.25;;
9388;SDS011;4734;52.778;6.798;2023-05-10T13:09:00;7.82;;;6.43;;
9388;SDS011;4734;52.778;6.798;2023-05-10T13:11:46;7.72;;;7.03;;
9388;SDS011;4734;52.778;6.798;2023-05-10T13:14:33;7.03;;;6.38;;
9388;SDS011;4734;52.778;6.798;2023-05-10T13:17:18;6.65;;;6.10;;
9388;SDS011;4734;52.778;6.798;2023-05-10T13:20:04;7.05;;;5.97;;
9388;SDS011;4734;52.778;6.798;2023-05-10T13:22:50;6.22;;;5.72;;
9388;SDS011;4734;52.778;6.798;2023-05-10T13:25:36;6.40;;;5.80;;
9388;SDS011;4734;52.778;6.798;2023-05-10T13:28:22;6.57;;;6.05;;
9388;SDS011;4734;52.778;6.798;2023-05-10T13:31:10;7.65;;;6.50;;
9388;SDS011;4734;52.778;6.798;2023-05-10T13:33:55;6.82;;;6.13;;
9388;SDS011;4734;52.778;6.798;2023-05-10T13:36:41;7.80;;;6.97;;
9388;SDS011;4734;52.778;6.798;2023-05-10T13:39:26;7.18;;;6.50;;
9388;SDS011;4734;52.778;6.798;2023-05-10T13:42:14;7.50;;;6.70;;
9388;SDS011;4734;52.778;6.798;2023-05-10T13:45:00;6.85;;;6.15;;
9388;SDS011;4734;52.778;6.798;2023-05-10T13:47:49;6.97;;;6.35;;
9388;SDS011;4734;52.778;6.798;2023-05-10T13:50:35;7.95;;;7.20;;
9388;SDS011;4734;52.778;6.798;2023-05-10T13:53:21;9.10;;;6.45;;
9388;SDS011;4734;52.778;6.798;2023-05-10T13:56:07;7.78;;;7.00;;
9388;SDS011;4734;52.778;6.798;2023-05-10T13:58:52;7.68;;;6.97;;
9388;SDS011;4734;52.778;6.798;2023-05-10T14:01:38;8.38;;;7.13;;
9388;SDS011;4734;52.778;6.798;2023-05-10T14:04:25;8.25;;;7.03;;
9388;SDS011;4734;52.778;6.798;2023-05-10T14:07:10;7.13;;;6.43;;
9388;SDS011;4734;52.778;6.798;2023-05-10T14:09:58;7.65;;;6.93;;
9388;SDS011;4734;52.778;6.798;2023-05-10T14:12:43;5.80;;;5.30;;
9388;SDS011;4734;52.778;6.798;2023-05-10T14:15:30;5.95;;;5.35;;
9388;SDS011;4734;52.778;6.798;2023-05-10T14:18:16;5.57;;;5.07;;
9388;SDS011;4734;52.778;6.798;2023-05-10T14:21:03;6.13;;;5.57;;
9388;SDS011;4734;52.778;6.798;2023-05-10T14:23:49;7.28;;;6.30;;
9388;SDS011;4734;52.778;6.798;2023-05-10T14:26:34;6.95;;;6.25;;
9388;SDS011;4734;52.778;6.798;2023-05-10T14:29:20;7.03;;;6.35;;
9388;SDS011;4734;52.778;6.798;2023-05-10T14:32:05;5.90;;;5.30;;
9388;SDS011;4734;52.778;6.798;2023-05-10T14:34:51;6.70;;;6.00;;
9388;SDS011;4734;52.778;6.798;2023-05-10T14:37:38;6.55;;;5.45;;
9388;SDS011;4734;52.778;6.798;2023-05-10T14:40:23;6.35;;;5.75;;
9388;SDS011;4734;52.778;6.798;2023-05-10T14:43:09;7.55;;;6.05;;
9388;SDS011;4734;52.778;6.798;2023-05-10T14:45:55;6.05;;;5.40;;
9388;SDS011;4734;52.778;6.798;2023-05-10T14:48:40;7.90;;;5.57;;
9388;SDS011;4734;52.778;6.798;2023-05-10T14:51:26;6.32;;;5.65;;
9388;SDS011;4734;52.778;6.798;2023-05-10T14:54:13;6.53;;;5.30;;
9388;SDS011;4734;52.778;6.798;2023-05-10T14:56:58;6.35;;;5.75;;
9388;SDS011;4734;52.778;6.798;2023-05-10T14:59:44;6.97;;;5.85;;
9388;SDS011;4734;52.778;6.798;2023-05-10T15:02:30;6.57;;;5.97;;
9388;SDS011;4734;52.778;6.798;2023-05-10T15:05:16;6.50;;;5.78;;
9388;SDS011;4734;52.778;6.798;2023-05-10T15:08:02;6.22;;;5.30;;
9388;SDS011;4734;52.778;6.798;2023-05-10T15:10:50;6.47;;;5.82;;
9388;SDS011;4734;52.778;6.798;2023-05-10T15:13:38;8.40;;;5.88;;
9388;SDS011;4734;52.778;6.798;2023-05-10T15:16:24;6.50;;;5.90;;
9388;SDS011;4734;52.778;6.798;2023-05-10T15:19:09;7.75;;;5.97;;
9388;SDS011;4734;52.778;6.798;2023-05-10T15:21:55;8.15;;;5.90;;
9388;SDS011;4734;52.778;6.798;2023-05-10T15:24:44;8.93;;;6.30;;
9388;SDS011;4734;52.778;6.798;2023-05-10T15:27:34;6.38;;;5.88;;
9388;SDS011;4734;52.778;6.798;2023-05-10T15:30:24;7.07;;;6.38;;
9388;SDS011;4734;52.778;6.798;2023-05-10T15:33:10;7.47;;;6.18;;
9388;SDS011;4734;52.778;6.798;2023-05-10T15:35:55;7.80;;;7.00;;
9388;SDS011;4734;52.778;6.798;2023-05-10T15:38:41;8.88;;;7.43;;
9388;SDS011;4734;52.778;6.798;2023-05-10T15:41:27;6.90;;;6.20;;
9388;SDS011;4734;52.778;6.798;2023-05-10T15:44:13;7.28;;;6.57;;
9388;SDS011;4734;52.778;6.798;2023-05-10T15:46:59;7.38;;;6.57;;
9388;SDS011;4734;52.778;6.798;2023-05-10T15:49:44;7.03;;;6.20;;
9388;SDS011;4734;52.778;6.798;2023-05-10T15:52:30;6.88;;;5.95;;
9388;SDS011;4734;52.778;6.798;2023-05-10T15:55:15;6.47;;;5.88;;
9388;SDS011;4734;52.778;6.798;2023-05-10T15:58:01;7.35;;;6.65;;
9388;SDS011;4734;52.778;6.798;2023-05-10T16:00:48;6.65;;;6.03;;
9388;SDS011;4734;52.778;6.798;2023-05-10T16:03:33;7.78;;;6.18;;
9388;SDS011;4734;52.778;6.798;2023-05-10T16:06:19;6.55;;;5.95;;
9388;SDS011;4734;52.778;6.798;2023-05-10T16:09:04;7.50;;;6.80;;
9388;SDS011;4734;52.778;6.798;2023-05-10T16:11:50;7.55;;;6.85;;
9388;SDS011;4734;52.778;6.798;2023-05-10T16:14:35;7.47;;;6.70;;
9388;SDS011;4734;52.778;6.798;2023-05-10T16:17:22;7.78;;;6.97;;
9388;SDS011;4734;52.778;6.798;2023-05-10T16:20:08;7.47;;;6.65;;
9388;SDS011;4734;52.778;6.798;2023-05-10T16:22:54;8.25;;;6.65;;
9388;SDS011;4734;52.778;6.798;2023-05-10T16:25:40;6.70;;;6.00;;
9388;SDS011;4734;52.778;6.798;2023-05-10T16:28:25;7.03;;;6.38;;
9388;SDS011;4734;52.778;6.798;2023-05-10T16:31:11;7.22;;;6.03;;
9388;SDS011;4734;52.778;6.798;2023-05-10T16:33:57;6.35;;;5.75;;
9388;SDS011;4734;52.778;6.798;2023-05-10T16:36:43;6.78;;;6.18;;
9388;SDS011;4734;52.778;6.798;2023-05-10T16:39:29;8.82;;;6.57;;
9388;SDS011;4734;52.778;6.798;2023-05-10T16:42:15;7.53;;;6.78;;
9388;SDS011;4734;52.778;6.798;2023-05-10T16:45:00;8.35;;;6.93;;
9388;SDS011;4734;52.778;6.798;2023-05-10T16:47:50;7.30;;;6.60;;
9388;SDS011;4734;52.778;6.798;2023-05-10T16:50:38;7.30;;;6.43;;
9388;SDS011;4734;52.778;6.798;2023-05-10T16:53:27;7.32;;;6.63;;
9388;SDS011;4734;52.778;6.798;2023-05-10T16:56:13;7.55;;;6.82;;
9388;SDS011;4734;52.778;6.798;2023-05-10T16:59:00;8.15;;;7.00;;
9388;SDS011;4734;52.778;6.798;2023-05-10T17:01:46;7.72;;;6.93;;
9388;SDS011;4734;52.778;6.798;2023-05-10T17:04:31;7.65;;;6.95;;
9388;SDS011;4734;52.778;6.798;2023-05-10T17:07:18;7.38;;;6.65;;
9388;SDS011;4734;52.778;6.798;2023-05-10T17:10:04;7.38;;;6.68;;
9388;SDS011;4734;52.778;6.798;2023-05-10T17:12:50;6.97;;;6.22;;
9388;SDS011;4734;52.778;6.798;2023-05-10T17:15:36;7.93;;;7.13;;
9388;SDS011;4734;52.778;6.798;2023-05-10T17:18:22;8.35;;;7.55;;